createdAt,value
2018-09-01T00:00:37.499Z,0
2018-09-01T00:01:38.014Z,0
2018-09-01T00:02:37.854Z,0
2018-09-01T00:03:37.459Z,0
2018-09-01T00:04:38.036Z,0
2018-09-01T00:05:37.639Z,0
2018-09-01T00:06:38.197Z,0
2018-09-01T00:07:59.715Z,0
2018-09-01T00:09:00.183Z,0
2018-09-01T00:09:59.614Z,0
2018-09-01T00:11:00.363Z,0
2018-09-01T00:11:59.759Z,0
2018-09-01T00:13:00.502Z,0
2018-09-01T00:14:00.465Z,0
2018-09-01T00:14:59.948Z,0
2018-09-01T00:15:59.431Z,0
2018-09-01T00:18:04.269Z,0
2018-09-01T00:19:04.743Z,0
2018-09-01T00:20:25.474Z,0
2018-09-01T00:21:26.150Z,0
2018-09-01T00:22:25.972Z,0
2018-09-01T00:23:25.704Z,0
2018-09-01T00:24:26.089Z,0
2018-09-01T00:25:25.549Z,0
2018-09-01T00:26:26.132Z,0
2018-09-01T00:27:25.689Z,0
2018-09-01T00:28:26.325Z,0
2018-09-01T00:29:25.881Z,0
2018-09-01T00:30:25.303Z,0
2018-09-01T00:31:25.931Z,0
2018-09-01T00:32:25.452Z,0
2018-09-01T00:33:47.239Z,0
2018-09-01T00:34:48.085Z,0
2018-09-01T00:35:47.486Z,0
2018-09-01T00:36:48.005Z,0
2018-09-01T00:37:47.477Z,0
2018-09-01T00:38:47.825Z,0
2018-09-01T00:40:08.408Z,0
2018-09-01T00:41:08.780Z,0
2018-09-01T00:42:09.207Z,0
2018-09-01T00:43:08.666Z,0
2018-09-01T00:44:09.048Z,0
2018-09-01T00:45:08.484Z,0
2018-09-01T00:46:30.085Z,0
2018-09-01T00:47:30.580Z,0
2018-09-01T00:48:31.048Z,0
2018-09-01T00:49:30.345Z,0
2018-09-01T00:50:30.758Z,0
2018-09-01T00:51:30.320Z,0
2018-09-01T00:52:30.778Z,0
2018-09-01T00:53:52.559Z,0
2018-09-01T00:54:53.033Z,0
2018-09-01T00:55:52.439Z,0
2018-09-01T00:57:13.567Z,0
2018-09-01T00:58:13.943Z,0
2018-09-01T00:59:14.182Z,0
2018-09-01T01:00:14.526Z,0
2018-09-01T01:01:35.429Z,0
2018-09-01T01:02:35.894Z,0
2018-09-01T01:03:35.485Z,0
2018-09-01T01:04:36.001Z,0
2018-09-01T01:05:35.643Z,0
2018-09-01T01:06:35.999Z,0
2018-09-01T01:07:35.459Z,0
2018-09-01T01:08:35.980Z,0
2018-09-01T01:09:35.618Z,0
2018-09-01T01:10:35.855Z,0
2018-09-01T01:11:35.693Z,0
2018-09-01T01:12:36.132Z,0
2018-09-01T01:13:35.570Z,0
2018-09-01T01:14:35.945Z,0
2018-09-01T01:15:35.312Z,0
2018-09-01T01:16:35.620Z,0
2018-09-01T01:17:35.966Z,0
2018-09-01T01:20:32.819Z,0
2018-09-01T01:21:32.944Z,0
2018-09-01T01:22:32.931Z,0
2018-09-01T01:23:33.107Z,0
2018-09-01T01:24:53.474Z,0
2018-09-01T01:25:54.530Z,0
2018-09-01T01:27:14.324Z,0
2018-09-01T01:28:14.291Z,0
2018-09-01T01:29:14.215Z,0
2018-09-01T01:30:14.126Z,0
2018-09-01T01:31:15.288Z,0
2018-09-01T01:32:14.519Z,0
2018-09-01T01:33:14.578Z,0
2018-09-01T01:34:18.477Z,0
2018-09-01T01:35:14.525Z,0
2018-09-01T01:36:36.117Z,0
2018-09-01T01:37:36.066Z,0
2018-09-01T01:38:37.115Z,0
2018-09-01T01:39:36.032Z,0
2018-09-01T01:40:36.047Z,0
2018-09-01T01:41:36.219Z,0
2018-09-01T01:42:57.002Z,0
2018-09-01T01:43:57.117Z,0
2018-09-01T01:44:57.159Z,0
2018-09-01T01:45:57.152Z,0
2018-09-01T01:47:18.166Z,0
2018-09-01T01:48:18.102Z,0
2018-09-01T01:49:39.104Z,0
2018-09-01T01:51:20.755Z,0
2018-09-01T01:52:20.742Z,0
2018-09-01T01:53:20.859Z,0
2018-09-01T01:54:20.648Z,0
2018-09-01T01:55:41.761Z,0
2018-09-01T01:56:41.796Z,0
2018-09-01T01:58:02.491Z,0
2018-09-01T01:59:03.294Z,0
2018-09-01T02:00:03.335Z,0
2018-09-01T02:01:02.496Z,0
2018-09-01T02:02:23.274Z,0
2018-09-01T02:03:23.486Z,0
2018-09-01T02:04:23.537Z,0
2018-09-01T02:05:23.574Z,0
2018-09-01T02:06:23.493Z,0
2018-09-01T02:07:23.520Z,0
2018-09-01T02:08:23.732Z,0
2018-09-01T02:09:23.853Z,0
2018-09-01T02:10:24.152Z,0
2018-09-01T02:11:23.320Z,0
2018-09-01T02:12:23.618Z,0
2018-09-01T02:14:05.541Z,0
2018-09-01T02:15:05.582Z,0
2018-09-01T02:16:05.614Z,0
2018-09-01T02:17:06.313Z,0
2018-09-01T02:18:05.430Z,0
2018-09-01T02:19:05.699Z,0
2018-09-01T02:20:26.051Z,0
2018-09-01T02:21:26.266Z,0
2018-09-01T02:22:46.730Z,0
2018-09-01T02:23:59.997Z,0
2018-09-01T02:24:46.957Z,0
2018-09-01T02:25:47.066Z,0
2018-09-01T02:26:47.172Z,0
2018-09-01T02:27:47.310Z,0
2018-09-01T02:28:47.136Z,0
2018-09-01T02:29:47.172Z,0
2018-09-01T02:30:47.187Z,0
2018-09-01T02:31:47.315Z,0
2018-09-01T02:32:47.415Z,0
2018-09-01T02:33:47.523Z,0
2018-09-01T02:34:47.518Z,0
2018-09-01T02:35:47.674Z,0
2018-09-01T02:36:47.625Z,0
2018-09-01T02:37:47.759Z,0
2018-09-01T02:38:47.943Z,0
2018-09-01T02:39:47.043Z,0
2018-09-01T02:40:47.119Z,0
2018-09-01T02:41:47.196Z,0
2018-09-01T02:42:47.100Z,0
2018-09-01T02:44:07.815Z,0
2018-09-01T02:45:08.860Z,0
2018-09-01T02:46:50.704Z,0
2018-09-01T02:47:50.878Z,0
2018-09-01T02:48:51.088Z,0
2018-09-01T02:49:51.201Z,0
2018-09-01T02:50:51.300Z,0
2018-09-01T02:51:51.057Z,0
2018-09-01T02:52:51.090Z,0
2018-09-01T02:53:51.106Z,0
2018-09-01T02:55:12.316Z,0
2018-09-01T02:56:12.372Z,0
2018-09-01T02:57:12.447Z,0
2018-09-01T02:58:33.508Z,0
2018-09-01T02:59:34.605Z,0
2018-09-01T03:00:33.748Z,0
2018-09-01T03:01:34.081Z,0
2018-09-01T03:02:54.735Z,0
2018-09-01T03:03:54.819Z,0
2018-09-01T03:05:15.842Z,0
2018-09-01T03:06:15.916Z,0
2018-09-01T03:07:15.967Z,0
2018-09-01T03:08:16.020Z,0
2018-09-01T03:09:16.139Z,0
2018-09-01T03:10:16.277Z,0
2018-09-01T03:11:16.390Z,0
2018-09-01T03:12:16.613Z,0
2018-09-01T03:13:15.838Z,0
2018-09-01T03:14:15.840Z,0
2018-09-01T03:15:15.861Z,0
2018-09-01T03:16:15.995Z,0
2018-09-01T03:17:16.162Z,0
2018-09-01T03:18:16.429Z,0
2018-09-01T03:19:16.507Z,0
2018-09-01T03:20:16.682Z,0
2018-09-01T03:21:16.660Z,0
2018-09-01T03:22:37.704Z,0
2018-09-01T03:23:37.964Z,0
2018-09-01T03:24:37.865Z,0
2018-09-01T03:25:37.696Z,0
2018-09-01T03:26:58.810Z,0
2018-09-01T03:27:58.841Z,0
2018-09-01T03:28:58.971Z,0
2018-09-01T03:29:58.983Z,0
2018-09-01T03:30:59.063Z,0
2018-09-01T03:31:59.241Z,0
2018-09-01T03:32:59.213Z,0
2018-09-01T03:33:59.507Z,0
2018-09-01T03:34:59.799Z,0
2018-09-01T03:36:40.485Z,0
2018-09-01T03:37:40.522Z,0
2018-09-01T03:39:01.562Z,0
2018-09-01T03:40:22.623Z,0
2018-09-01T03:41:22.820Z,0
2018-09-01T03:42:23.025Z,0
2018-09-01T03:43:23.179Z,0
2018-09-01T03:44:23.025Z,0
2018-09-01T03:45:23.049Z,0
2018-09-01T03:46:23.084Z,0
2018-09-01T03:47:23.064Z,0
2018-09-01T03:48:23.264Z,0
2018-09-01T03:49:23.349Z,0
2018-09-01T03:50:23.556Z,0
2018-09-01T03:51:23.609Z,0
2018-09-01T03:52:22.613Z,0
2018-09-01T03:53:23.051Z,0
2018-09-01T03:54:23.252Z,0
2018-09-01T03:55:23.380Z,0
2018-09-01T03:56:23.650Z,0
2018-09-01T03:57:22.840Z,0
2018-09-01T03:58:22.908Z,0
2018-09-01T03:59:23.082Z,0
2018-09-01T04:00:23.445Z,0
2018-09-01T04:01:22.684Z,0
2018-09-01T04:02:43.812Z,0
2018-09-01T04:03:43.820Z,0
2018-09-01T04:05:26.642Z,0
2018-09-01T04:06:26.632Z,0
2018-09-01T04:07:26.957Z,0
2018-09-01T04:08:48.038Z,0
2018-09-01T04:09:48.230Z,0
2018-09-01T04:10:48.376Z,0
2018-09-01T04:11:48.423Z,0
2018-09-01T04:12:48.461Z,0
2018-09-01T04:13:48.489Z,0
2018-09-01T04:14:48.302Z,0
2018-09-01T04:15:48.371Z,0
2018-09-01T04:16:48.513Z,0
2018-09-01T04:17:48.508Z,0
2018-09-01T04:18:48.338Z,0
2018-09-01T04:19:48.287Z,0
2018-09-01T04:20:48.183Z,0
2018-09-01T04:21:48.297Z,0
2018-09-01T04:22:48.332Z,0
2018-09-01T04:23:48.404Z,0
2018-09-01T04:25:30.208Z,0
2018-09-01T04:26:31.205Z,0
2018-09-01T04:27:30.434Z,1
2018-09-01T04:28:30.576Z,1
2018-09-01T04:29:30.774Z,1
2018-09-01T04:30:31.035Z,1
2018-09-01T04:31:52.669Z,1
2018-09-01T04:32:52.815Z,1
2018-09-01T04:33:53.122Z,2
2018-09-01T04:35:13.043Z,2
2018-09-01T04:36:14.242Z,2
2018-09-01T04:37:13.439Z,2
2018-09-01T04:38:13.672Z,3
2018-09-01T04:39:13.811Z,3
2018-09-01T04:40:14.033Z,3
2018-09-01T04:41:35.096Z,4
2018-09-01T04:42:35.239Z,4
2018-09-01T04:43:35.398Z,4
2018-09-01T04:44:35.734Z,4
2018-09-01T04:45:36.182Z,5
2018-09-01T04:46:35.362Z,5
2018-09-01T04:47:35.444Z,6
2018-09-01T04:48:35.672Z,6
2018-09-01T04:49:35.878Z,6
2018-09-01T04:50:35.191Z,7
2018-09-01T04:51:35.470Z,7
2018-09-01T04:53:17.692Z,8
2018-09-01T04:54:39.040Z,9
2018-09-01T04:55:39.269Z,9
2018-09-01T04:56:39.429Z,10
2018-09-01T04:57:40.001Z,10
2018-09-01T04:58:39.393Z,11
2018-09-01T04:59:39.879Z,11
2018-09-01T05:00:39.908Z,12
2018-09-01T05:01:39.182Z,13
2018-09-01T05:02:39.601Z,13
2018-09-01T05:03:39.862Z,14
2018-09-01T05:04:40.179Z,14
2018-09-01T05:06:00.421Z,15
2018-09-01T05:07:00.834Z,16
2018-09-01T05:08:01.251Z,16
2018-09-01T05:09:00.287Z,17
2018-09-01T05:10:21.720Z,18
2018-09-01T05:11:42.760Z,19
2018-09-01T05:12:43.046Z,19
2018-09-01T05:13:43.281Z,20
2018-09-01T05:14:43.653Z,21
2018-09-01T05:15:42.785Z,21
2018-09-01T05:16:43.372Z,22
2018-09-01T05:18:04.612Z,23
2018-09-01T05:19:04.778Z,23
2018-09-01T05:20:04.987Z,24
2018-09-01T05:21:05.296Z,25
2018-09-01T05:22:04.609Z,26
2018-09-01T05:23:05.029Z,26
2018-09-01T05:24:05.426Z,27
2018-09-01T05:25:04.901Z,27
2018-09-01T05:26:04.833Z,29
2018-09-01T05:27:04.948Z,30
2018-09-01T05:28:05.202Z,30
2018-09-01T05:29:04.666Z,30
2018-09-01T05:30:05.217Z,31
2018-09-01T05:31:05.415Z,32
2018-09-01T05:32:04.497Z,33
2018-09-01T05:33:04.896Z,35
2018-09-01T05:34:47.329Z,37
2018-09-01T05:35:47.656Z,37
2018-09-01T05:36:47.953Z,38
2018-09-01T05:37:48.337Z,41
2018-09-01T05:38:47.657Z,46
2018-09-01T05:39:47.785Z,52
2018-09-01T05:40:47.986Z,52
2018-09-01T05:41:48.149Z,47
2018-09-01T05:43:08.575Z,47
2018-09-01T05:44:08.877Z,49
2018-09-01T05:45:51.562Z,50
2018-09-01T05:46:51.854Z,47
2018-09-01T05:47:52.273Z,47
2018-09-01T05:48:51.765Z,48
2018-09-01T05:49:52.234Z,48
2018-09-01T05:50:52.439Z,49
2018-09-01T05:51:51.872Z,51
2018-09-01T05:52:52.177Z,52
2018-09-01T05:54:13.481Z,54
2018-09-01T05:55:13.809Z,55
2018-09-01T05:56:14.039Z,55
2018-09-01T05:57:13.576Z,53
2018-09-01T05:58:35.091Z,51
2018-09-01T05:59:36.229Z,50
2018-09-01T06:00:35.494Z,50
2018-09-01T06:01:35.166Z,49
2018-09-01T06:02:35.538Z,49
2018-09-01T06:03:34.944Z,50
2018-09-01T06:04:35.260Z,50
2018-09-01T06:05:36.042Z,50
2018-09-01T06:06:35.573Z,51
2018-09-01T06:08:18.206Z,51
2018-09-01T06:09:18.736Z,52
2018-09-01T06:10:19.059Z,53
2018-09-01T06:11:18.421Z,52
2018-09-01T06:12:18.892Z,52
2018-09-01T06:13:19.000Z,52
2018-09-01T06:14:18.352Z,52
2018-09-01T06:16:00.732Z,53
2018-09-01T06:17:01.187Z,54
2018-09-01T06:18:01.592Z,56
2018-09-01T06:19:00.833Z,58
2018-09-01T06:20:01.248Z,56
2018-09-01T06:21:01.514Z,55
2018-09-01T06:22:00.979Z,56
2018-09-01T06:23:01.386Z,58
2018-09-01T06:24:00.923Z,59
2018-09-01T06:25:01.287Z,68
2018-09-01T06:26:00.894Z,85
2018-09-01T06:27:01.214Z,101
2018-09-01T06:28:01.563Z,104
2018-09-01T06:29:01.031Z,108
2018-09-01T06:30:01.921Z,111
2018-09-01T06:31:01.324Z,114
2018-09-01T06:32:01.578Z,117
2018-09-01T06:33:01.102Z,120
2018-09-01T06:34:01.552Z,121
2018-09-01T06:35:00.951Z,123
2018-09-01T06:36:01.276Z,123
2018-09-01T06:37:01.758Z,113
2018-09-01T06:38:01.175Z,121
2018-09-01T06:39:01.463Z,130
2018-09-01T06:40:00.760Z,133
2018-09-01T06:41:01.188Z,128
2018-09-01T06:42:01.419Z,138
2018-09-01T06:43:00.782Z,81
2018-09-01T06:44:01.158Z,124
2018-09-01T06:45:01.509Z,126
2018-09-01T06:46:00.617Z,104
2018-09-01T06:47:01.017Z,91
2018-09-01T06:48:01.455Z,91
2018-09-01T06:49:00.838Z,143
2018-09-01T06:50:01.527Z,189
2018-09-01T06:51:00.919Z,195
2018-09-01T06:52:01.467Z,204
2018-09-01T06:53:01.692Z,204
2018-09-01T06:54:22.477Z,198
2018-09-01T06:55:22.718Z,169
2018-09-01T06:56:23.228Z,162
2018-09-01T06:57:43.860Z,197
2018-09-01T06:58:44.157Z,180
2018-09-01T06:59:44.359Z,177
2018-09-01T07:00:44.916Z,178
2018-09-01T07:01:44.854Z,177
2018-09-01T07:02:44.262Z,177
2018-09-01T07:03:44.699Z,175
2018-09-01T07:04:44.285Z,174
2018-09-01T07:05:44.673Z,174
2018-09-01T07:06:44.221Z,175
2018-09-01T07:08:27.752Z,179
2018-09-01T07:09:28.031Z,183
2018-09-01T07:10:28.404Z,183
2018-09-01T07:11:27.763Z,189
2018-09-01T07:12:27.963Z,217
2018-09-01T07:13:28.358Z,258
2018-09-01T07:14:27.836Z,261
2018-09-01T07:15:28.137Z,254
2018-09-01T07:16:28.735Z,256
2018-09-01T07:17:28.026Z,265
2018-09-01T07:18:28.323Z,264
2018-09-01T07:19:27.787Z,253
2018-09-01T07:20:28.216Z,254
2018-09-01T07:21:27.928Z,261
2018-09-01T07:22:28.604Z,260
2018-09-01T07:23:28.139Z,276
2018-09-01T07:24:28.909Z,329
2018-09-01T07:25:28.229Z,256
2018-09-01T07:26:28.442Z,296
2018-09-01T07:27:27.902Z,317
2018-09-01T07:29:11.240Z,341
2018-09-01T07:30:11.558Z,374
2018-09-01T07:31:11.497Z,485
2018-09-01T07:32:11.154Z,718
2018-09-01T07:33:11.863Z,643
2018-09-01T07:34:11.368Z,718
2018-09-01T07:35:11.912Z,812
2018-09-01T07:36:11.441Z,485
2018-09-01T07:37:33.220Z,420
2018-09-01T07:38:33.721Z,409
2018-09-01T07:39:55.399Z,426
2018-09-01T07:40:55.983Z,371
2018-09-01T07:41:56.091Z,362
2018-09-01T07:43:16.936Z,361
2018-09-01T07:44:17.998Z,361
2018-09-01T07:45:38.038Z,369
2018-09-01T07:46:38.304Z,367
2018-09-01T07:47:37.772Z,364
2018-09-01T07:48:38.216Z,328
2018-09-01T07:49:37.416Z,351
2018-09-01T07:50:37.677Z,367
2018-09-01T07:51:37.906Z,227
2018-09-01T07:52:38.178Z,409
2018-09-01T07:53:37.521Z,392
2018-09-01T07:54:37.749Z,382
2018-09-01T07:55:38.182Z,393
2018-09-01T07:56:38.889Z,396
2018-09-01T07:57:38.240Z,394
2018-09-01T07:58:37.622Z,400
2018-09-01T08:00:20.120Z,396
2018-09-01T08:01:41.637Z,400
2018-09-01T08:03:03.344Z,413
2018-09-01T08:04:03.628Z,406
2018-09-01T08:05:03.869Z,398
2018-09-01T08:06:04.490Z,401
2018-09-01T08:07:03.903Z,399
2018-09-01T08:08:04.146Z,415
2018-09-01T08:09:03.425Z,407
2018-09-01T08:10:03.756Z,418
2018-09-01T08:11:03.337Z,426
2018-09-01T08:12:03.658Z,414
2018-09-01T08:13:04.540Z,418
2018-09-01T08:14:04.098Z,414
2018-09-01T08:15:03.721Z,414
2018-09-01T08:16:03.981Z,414
2018-09-01T08:17:03.270Z,409
2018-09-01T08:18:03.510Z,427
2018-09-01T08:19:03.711Z,446
2018-09-01T08:20:26.124Z,461
2018-09-01T08:21:26.514Z,453
2018-09-01T08:22:25.914Z,434
2018-09-01T08:23:26.280Z,429
2018-09-01T08:24:25.667Z,443
2018-09-01T08:25:49.243Z,451
2018-09-01T08:27:10.844Z,454
2018-09-01T08:28:10.958Z,447
2018-09-01T08:29:11.305Z,455
2018-09-01T08:30:32.412Z,443
2018-09-01T08:31:32.714Z,445
2018-09-01T08:32:33.124Z,462
2018-09-01T08:33:32.550Z,492
2018-09-01T08:34:33.133Z,498
2018-09-01T08:35:32.561Z,475
2018-09-01T08:36:32.997Z,462
2018-09-01T08:37:33.389Z,469
2018-09-01T08:38:32.787Z,498
2018-09-01T08:39:33.786Z,497
2018-09-01T08:40:33.815Z,472
2018-09-01T08:41:33.000Z,467
2018-09-01T08:42:33.353Z,477
2018-09-01T08:43:33.080Z,483
2018-09-01T08:44:53.785Z,494
2018-09-01T08:45:54.198Z,492
2018-09-01T08:46:54.719Z,478
2018-09-01T08:47:54.183Z,473
2018-09-01T08:49:16.125Z,465
2018-09-01T08:50:16.622Z,485
2018-09-01T08:51:16.023Z,509
2018-09-01T08:52:37.759Z,413
2018-09-01T08:53:38.182Z,524
2018-09-01T08:54:38.552Z,542
2018-09-01T08:55:37.887Z,572
2018-09-01T08:56:38.204Z,569
2018-09-01T08:57:58.829Z,574
2018-09-01T08:58:59.344Z,554
2018-09-01T08:59:59.913Z,549
2018-09-01T09:00:59.211Z,579
2018-09-01T09:01:59.645Z,615
2018-09-01T09:02:58.991Z,626
2018-09-01T09:03:59.980Z,642
2018-09-01T09:04:59.385Z,637
2018-09-01T09:06:42.079Z,602
2018-09-01T09:07:42.528Z,451
2018-09-01T09:08:42.698Z,578
2018-09-01T09:09:43.576Z,566
2018-09-01T09:10:43.051Z,571
2018-09-01T09:11:42.481Z,576
2018-09-01T09:12:43.021Z,562
2018-09-01T09:13:42.233Z,573
2018-09-01T09:14:42.821Z,595
2018-09-01T09:15:42.934Z,612
2018-09-01T09:16:42.617Z,598
2018-09-01T09:17:43.149Z,550
2018-09-01T09:18:42.784Z,289
2018-09-01T09:19:42.463Z,172
2018-09-01T09:20:43.510Z,201
2018-09-01T09:21:42.738Z,469
2018-09-01T09:22:43.283Z,529
2018-09-01T09:23:43.060Z,384
2018-09-01T09:24:42.297Z,242
2018-09-01T09:25:42.792Z,181
2018-09-01T09:26:42.521Z,566
2018-09-01T09:27:43.410Z,561
2018-09-01T09:28:43.392Z,154
2018-09-01T09:29:42.896Z,593
2018-09-01T09:31:04.505Z,640
2018-09-01T09:32:25.616Z,621
2018-09-01T09:33:25.303Z,599
2018-09-01T09:34:25.766Z,600
2018-09-01T09:35:25.266Z,586
2018-09-01T09:36:25.715Z,585
2018-09-01T09:37:46.414Z,627
2018-09-01T09:38:47.074Z,618
2018-09-01T09:39:47.020Z,561
2018-09-01T09:40:47.690Z,617
2018-09-01T09:41:47.130Z,287
2018-09-01T09:43:08.347Z,210
2018-09-01T09:44:09.395Z,171
2018-09-01T09:45:08.836Z,165
2018-09-01T09:46:30.781Z,168
2018-09-01T09:47:31.078Z,196
2018-09-01T09:48:31.314Z,602
2018-09-01T09:49:31.327Z,583
2018-09-01T09:50:30.990Z,603
2018-09-01T09:51:30.595Z,579
2018-09-01T09:52:30.845Z,637
2018-09-01T09:53:31.268Z,340
2018-09-01T09:54:30.362Z,692
2018-09-01T09:55:30.972Z,302
2018-09-01T09:56:31.374Z,278
2018-09-01T09:57:30.861Z,303
2018-09-01T09:58:31.333Z,221
2018-09-01T09:59:30.490Z,196
2018-09-01T10:00:30.791Z,185
2018-09-01T10:01:31.463Z,185
2018-09-01T10:02:31.392Z,196
2018-09-01T10:03:30.927Z,210
2018-09-01T10:04:31.385Z,232
2018-09-01T10:05:52.105Z,284
2018-09-01T10:06:52.475Z,688
2018-09-01T10:07:52.796Z,702
2018-09-01T10:08:52.091Z,668
2018-09-01T10:09:52.871Z,381
2018-09-01T10:10:52.219Z,632
2018-09-01T10:11:52.757Z,299
2018-09-01T10:12:52.626Z,282
2018-09-01T10:13:52.039Z,303
2018-09-01T10:14:53.460Z,361
2018-09-01T10:16:14.197Z,578
2018-09-01T10:17:13.760Z,288
2018-09-01T10:18:35.281Z,268
2018-09-01T10:19:57.989Z,294
2018-09-01T10:20:57.789Z,236
2018-09-01T10:21:58.208Z,344
2018-09-01T10:22:57.764Z,235
2018-09-01T10:23:58.090Z,242
2018-09-01T10:24:57.853Z,251
2018-09-01T10:25:58.423Z,264
2018-09-01T10:26:57.800Z,276
2018-09-01T10:27:59.834Z,539
2018-09-01T10:28:59.424Z,614
2018-09-01T10:29:59.757Z,404
2018-09-01T10:30:58.099Z,609
2018-09-01T10:31:57.396Z,604
2018-09-01T10:32:57.886Z,208
2018-09-01T10:34:19.020Z,181
2018-09-01T10:35:19.420Z,181
2018-09-01T10:36:41.607Z,206
2018-09-01T10:37:42.484Z,207
2018-09-01T10:38:42.281Z,213
2018-09-01T10:40:02.667Z,252
2018-09-01T10:41:03.288Z,644
2018-09-01T10:42:04.385Z,644
2018-09-01T10:43:02.775Z,646
2018-09-01T10:44:03.137Z,640
2018-09-01T10:45:03.779Z,648
2018-09-01T10:46:03.227Z,509
2018-09-01T10:47:03.526Z,640
2018-09-01T10:48:03.233Z,637
2018-09-01T10:49:25.134Z,610
2018-09-01T10:50:25.592Z,171
2018-09-01T10:51:24.857Z,165
2018-09-01T10:52:25.744Z,162
2018-09-01T10:53:46.145Z,182
2018-09-01T10:54:46.538Z,562
2018-09-01T10:55:48.959Z,573
2018-09-01T10:56:47.983Z,566
2018-09-01T10:57:46.507Z,562
2018-09-01T10:58:47.947Z,548
2018-09-01T10:59:49.866Z,564
2018-09-01T11:01:36.558Z,569
2018-09-01T11:02:35.468Z,557
2018-09-01T11:03:37.554Z,547
2018-09-01T11:04:58.885Z,537
2018-09-01T11:05:59.895Z,542
2018-09-01T11:07:00.739Z,537
2018-09-01T11:07:59.366Z,534
2018-09-01T11:09:01.926Z,547
2018-09-01T11:09:59.623Z,583
2018-09-01T11:11:01.074Z,605
2018-09-01T11:11:59.853Z,587
2018-09-01T11:12:59.715Z,577
2018-09-01T11:13:59.294Z,585
2018-09-01T11:16:13.928Z,583
2018-09-01T11:17:12.488Z,574
2018-09-01T11:18:13.160Z,589
2018-09-01T11:19:13.086Z,625
2018-09-01T11:20:12.869Z,674
2018-09-01T11:21:12.598Z,695
2018-09-01T11:22:13.581Z,711
2018-09-01T11:23:14.138Z,699
2018-09-01T11:24:12.718Z,637
2018-09-01T11:25:13.438Z,678
2018-09-01T11:26:14.486Z,649
2018-09-01T11:27:13.313Z,321
2018-09-01T11:28:16.314Z,205
2018-09-01T11:29:15.979Z,184
2018-09-01T11:30:12.826Z,172
2018-09-01T11:31:12.783Z,162
2018-09-01T11:32:12.141Z,160
2018-09-01T11:33:13.320Z,160
2018-09-01T11:34:35.217Z,159
2018-09-01T11:35:38.624Z,157
2018-09-01T11:36:37.874Z,149
2018-09-01T11:37:35.104Z,143
2018-09-01T11:38:39.084Z,140
2018-09-01T11:39:36.862Z,135
2018-09-01T11:40:35.908Z,130
2018-09-01T11:41:56.830Z,126
2018-09-01T11:42:57.240Z,125
2018-09-01T11:44:46.534Z,124
2018-09-01T11:45:46.721Z,125
2018-09-01T11:46:46.047Z,129
2018-09-01T11:48:10.377Z,133
2018-09-01T11:49:28.861Z,134
2018-09-01T11:50:50.255Z,137
2018-09-01T11:51:55.865Z,144
2018-09-01T11:52:50.250Z,153
2018-09-01T11:53:49.593Z,158
2018-09-01T11:54:50.111Z,156
2018-09-01T11:55:50.447Z,156
2018-09-01T11:56:49.717Z,159
2018-09-01T11:57:51.417Z,164
2018-09-01T11:58:49.990Z,174
2018-09-01T11:59:51.751Z,187
2018-09-01T12:00:50.796Z,197
2018-09-01T12:02:07.141Z,203
2018-09-01T12:03:07.396Z,200
2018-09-01T12:04:07.824Z,198
2018-09-01T12:05:07.211Z,200
2018-09-01T12:06:07.618Z,201
2018-09-01T12:07:29.106Z,221
2018-09-01T12:08:51.735Z,193
2018-09-01T12:09:51.335Z,171
2018-09-01T12:10:51.958Z,188
2018-09-01T12:11:51.537Z,188
2018-09-01T12:12:51.937Z,181
2018-09-01T12:13:51.146Z,180
2018-09-01T12:14:51.452Z,179
2018-09-01T12:15:51.959Z,179
2018-09-01T12:16:51.428Z,178
2018-09-01T12:18:12.872Z,333
2018-09-01T12:19:13.779Z,371
2018-09-01T12:20:13.313Z,591
2018-09-01T12:21:13.739Z,640
2018-09-01T12:22:13.664Z,657
2018-09-01T12:23:13.190Z,561
2018-09-01T12:24:35.279Z,679
2018-09-01T12:25:35.397Z,512
2018-09-01T12:26:34.923Z,459
2018-09-01T12:27:35.275Z,668
2018-09-01T12:28:57.962Z,656
2018-09-01T12:29:58.399Z,276
2018-09-01T12:31:19.960Z,436
2018-09-01T12:32:20.309Z,524
2018-09-01T12:33:21.174Z,206
2018-09-01T12:34:42.590Z,200
2018-09-01T12:35:41.922Z,205
2018-09-01T12:36:42.416Z,212
2018-09-01T12:38:03.432Z,225
2018-09-01T12:39:03.683Z,226
2018-09-01T12:40:02.988Z,237
2018-09-01T12:41:24.826Z,253
2018-09-01T12:42:25.321Z,269
2018-09-01T12:43:24.798Z,451
2018-09-01T12:44:25.055Z,305
2018-09-01T12:45:24.280Z,274
2018-09-01T12:46:24.494Z,275
2018-09-01T12:47:24.773Z,290
2018-09-01T12:48:25.095Z,296
2018-09-01T12:49:24.464Z,327
2018-09-01T12:50:24.753Z,420
2018-09-01T12:51:25.246Z,448
2018-09-01T12:52:24.726Z,330
2018-09-01T12:53:25.123Z,262
2018-09-01T12:54:25.098Z,244
2018-09-01T12:55:25.028Z,240
2018-09-01T12:56:24.957Z,243
2018-09-01T12:57:24.363Z,172
2018-09-01T12:58:46.613Z,145
2018-09-01T12:59:45.799Z,144
2018-09-01T13:00:47.358Z,147
2018-09-01T13:01:46.907Z,148
2018-09-01T13:02:48.937Z,147
2018-09-01T13:03:46.296Z,145
2018-09-01T13:04:46.659Z,144
2018-09-01T13:05:46.016Z,146
2018-09-01T13:06:46.317Z,149
2018-09-01T13:07:45.811Z,166
2018-09-01T13:08:46.190Z,191
2018-09-01T13:10:07.461Z,527
2018-09-01T13:11:28.883Z,520
2018-09-01T13:12:29.115Z,477
2018-09-01T13:13:29.278Z,475
2018-09-01T13:14:52.088Z,490
2018-09-01T13:16:54.821Z,525
2018-09-01T13:17:56.005Z,531
2018-09-01T13:18:55.904Z,516
2018-09-01T13:19:55.361Z,503
2018-09-01T13:20:55.685Z,503
2018-09-01T13:22:16.380Z,515
2018-09-01T13:23:16.616Z,523
2018-09-01T13:24:16.951Z,522
2018-09-01T13:25:16.316Z,508
2018-09-01T13:26:16.834Z,501
2018-09-01T13:27:17.232Z,498
2018-09-01T13:28:16.696Z,510
2018-09-01T13:29:17.054Z,518
2018-09-01T13:30:16.804Z,337
2018-09-01T13:31:17.279Z,474
2018-09-01T13:32:16.709Z,151
2018-09-01T13:33:16.983Z,142
2018-09-01T13:34:16.558Z,142
2018-09-01T13:35:17.057Z,189
2018-09-01T13:36:16.525Z,272
2018-09-01T13:37:16.997Z,467
2018-09-01T13:38:17.233Z,153
2018-09-01T13:39:16.729Z,496
2018-09-01T13:40:38.274Z,474
2018-09-01T13:41:38.551Z,466
2018-09-01T13:42:39.803Z,463
2018-09-01T13:43:40.078Z,469
2018-09-01T13:44:40.284Z,459
2018-09-01T13:45:38.513Z,449
2018-09-01T13:46:39.426Z,462
2018-09-01T13:47:59.859Z,463
2018-09-01T13:49:00.395Z,465
2018-09-01T13:50:00.873Z,449
2018-09-01T13:51:00.311Z,444
2018-09-01T13:52:00.776Z,466
2018-09-01T13:53:21.880Z,431
2018-09-01T13:54:22.360Z,436
2018-09-01T13:55:22.176Z,437
2018-09-01T13:56:22.500Z,448
2018-09-01T13:57:21.790Z,435
2018-09-01T13:58:21.432Z,402
2018-09-01T13:59:21.682Z,392
2018-09-01T14:00:22.109Z,403
2018-09-01T14:01:42.506Z,444
2018-09-01T14:02:42.848Z,448
2018-09-01T14:03:43.208Z,434
2018-09-01T14:04:42.422Z,399
2018-09-01T14:05:42.499Z,377
2018-09-01T14:06:43.485Z,408
2018-09-01T14:07:42.749Z,426
2018-09-01T14:09:04.857Z,438
2018-09-01T14:10:05.027Z,429
2018-09-01T14:11:04.483Z,424
2018-09-01T14:12:04.972Z,413
2018-09-01T14:13:04.246Z,404
2018-09-01T14:14:26.035Z,375
2018-09-01T14:15:26.565Z,379
2018-09-01T14:16:26.918Z,391
2018-09-01T14:17:26.167Z,383
2018-09-01T14:18:26.662Z,362
2018-09-01T14:19:27.050Z,366
2018-09-01T14:20:26.936Z,370
2018-09-01T14:21:26.988Z,374
2018-09-01T14:22:26.312Z,389
2018-09-01T14:23:48.474Z,366
2018-09-01T14:24:48.034Z,367
2018-09-01T14:25:48.400Z,365
2018-09-01T14:26:48.771Z,352
2018-09-01T14:27:48.612Z,325
2018-09-01T14:28:48.017Z,312
2018-09-01T14:29:48.278Z,329
2018-09-01T14:30:48.454Z,367
2018-09-01T14:32:31.233Z,385
2018-09-01T14:33:53.192Z,387
2018-09-01T14:34:53.751Z,381
2018-09-01T14:35:54.580Z,393
2018-09-01T14:37:15.185Z,384
2018-09-01T14:38:36.725Z,375
2018-09-01T14:39:58.753Z,371
2018-09-01T14:40:59.208Z,371
2018-09-01T14:41:59.573Z,363
2018-09-01T14:42:58.849Z,364
2018-09-01T14:43:59.255Z,328
2018-09-01T14:44:59.590Z,360
2018-09-01T14:45:59.276Z,376
2018-09-01T14:46:58.789Z,387
2018-09-01T14:47:59.113Z,389
2018-09-01T14:48:59.609Z,389
2018-09-01T14:49:59.140Z,389
2018-09-01T14:50:59.523Z,385
2018-09-01T14:52:41.184Z,385
2018-09-01T14:53:41.601Z,386
2018-09-01T14:55:24.067Z,374
2018-09-01T14:56:24.573Z,367
2018-09-01T14:57:25.054Z,356
2018-09-01T14:58:45.565Z,354
2018-09-01T14:59:46.951Z,358
2018-09-01T15:01:07.388Z,352
2018-09-01T15:02:07.841Z,354
2018-09-01T15:03:08.586Z,354
2018-09-01T15:04:29.920Z,247
2018-09-01T15:05:30.934Z,205
2018-09-01T15:06:51.866Z,284